Time;durP1;ratioP1;P1;durP2;ratioP2;P2;SDS_P1;SDS_P2;PMS_P1;PMS_P2;Temp;Humidity;BMP_temperature;BMP_pressure;BME280_temperature;BME280_humidity;BME280_pressure;Samples;Min_cycle;Max_cycle;Signal;HPM_P1;HPM_P2
2022/12/31 00:01:16;;;;;;;10.95;4.07;;;11.70;99.90;;;;;;5013961;28;20468;-68
2022/12/31 00:03:43;;;;;;;13.25;4.90;;;11.70;99.90;;;;;;5014528;28;20045;-68
2022/12/31 00:06:35;;;;;;;11.80;4.57;;;11.70;99.90;;;;;;5032203;28;20460;-68
2022/12/31 00:09:05;;;;;;;12.60;4.30;;;11.70;99.90;;;;;;5027741;28;20413;-68
2022/12/31 00:11:31;;;;;;;12.48;5.18;;;11.70;99.90;;;;;;5014039;28;20083;-68
2022/12/31 00:13:57;;;;;;;9.15;4.50;;;11.70;99.90;;;;;;5032064;28;20124;-67
2022/12/31 00:16:36;;;;;;;14.80;5.97;;;11.70;99.90;;;;;;5031544;28;20468;-68
2022/12/31 00:19:05;;;;;;;8.82;4.43;;;11.70;99.90;;;;;;5013685;28;20553;-68
2022/12/31 00:21:32;;;;;;;16.27;5.20;;;11.80;99.90;;;;;;5014037;28;20111;-68
2022/12/31 00:23:59;;;;;;;12.05;4.28;;;11.70;99.90;;;;;;5031269;28;20041;-68
2022/12/31 00:26:27;;;;;;;11.18;4.75;;;11.70;99.90;;;;;;5014042;28;20045;-68
2022/12/31 00:28:55;;;;;;;11.35;5.20;;;11.70;99.90;;;;;;5013640;28;20045;-68
2022/12/31 00:31:28;;;;;;;12.45;5.07;;;11.70;99.90;;;;;;5031497;28;20053;-68
2022/12/31 00:33:55;;;;;;;10.98;5.00;;;11.70;99.90;;;;;;5014032;28;20041;-68
2022/12/31 00:36:27;;;;;;;8.68;4.80;;;11.80;99.90;;;;;;5030985;28;20038;-68
2022/12/31 00:38:54;;;;;;;10.23;4.50;;;11.80;99.90;;;;;;5013527;28;20049;-68
2022/12/31 00:41:21;;;;;;;8.80;5.63;;;11.80;99.90;;;;;;5013693;28;20226;-68
2022/12/31 00:43:47;;;;;;;10.27;4.95;;;11.80;99.90;;;;;;5013173;28;20049;-68
2022/12/31 00:46:14;;;;;;;11.13;4.80;;;11.70;99.90;;;;;;5013686;28;20049;-68
2022/12/31 00:48:40;;;;;;;8.73;4.57;;;11.70;99.90;;;;;;5008789;28;20074;-68
2022/12/31 00:51:09;;;;;;;11.13;4.90;;;11.70;99.90;;;;;;5026919;28;20554;-69
2022/12/31 00:53:35;;;;;;;10.57;5.10;;;11.80;99.90;;;;;;5031178;28;20077;-68
2022/12/31 00:56:15;;;;;;;10.93;5.85;;;11.80;99.90;;;;;;5013540;28;20041;-68
2022/12/31 00:58:42;;;;;;;8.00;4.88;;;11.80;99.90;;;;;;5012975;28;20107;-68
2022/12/31 01:01:16;;;;;;;10.35;5.35;;;11.80;99.90;;;;;;5030845;28;20175;-68
2022/12/31 01:03:42;;;;;;;6.97;4.88;;;11.80;99.90;;;;;;5031107;28;20444;-68
2022/12/31 01:06:08;;;;;;;13.18;4.78;;;11.80;99.90;;;;;;5012370;28;20045;-69
2022/12/31 01:08:35;;;;;;;6.40;4.45;;;11.80;99.90;;;;;;5031169;28;20106;-69
2022/12/31 01:11:22;;;;;;;9.90;4.50;;;11.80;99.90;;;;;;5012570;28;20046;-68
2022/12/31 01:13:59;;;;;;;8.90;4.47;;;11.80;99.90;;;;;;5013169;28;20417;-68
2022/12/31 01:16:28;;;;;;;8.43;4.38;;;11.80;99.90;;;;;;5030414;28;20037;-68
2022/12/31 01:18:56;;;;;;;8.88;4.65;;;11.80;99.90;;;;;;5030147;28;20037;-68
2022/12/31 01:21:22;;;;;;;10.02;4.32;;;11.80;99.90;;;;;;4996383;28;20490;-68
2022/12/31 01:23:48;;;;;;;12.65;4.13;;;11.80;99.90;;;;;;5030312;28;20043;-68
2022/12/31 01:26:15;;;;;;;8.75;3.70;;;11.80;99.90;;;;;;5029865;28;20083;-68
2022/12/31 01:28:41;;;;;;;9.82;3.65;;;11.80;99.90;;;;;;5030806;28;20061;-68
2022/12/31 01:31:09;;;;;;;7.47;3.97;;;11.80;99.90;;;;;;5012624;28;20099;-68
2022/12/31 01:33:36;;;;;;;8.85;3.80;;;11.80;99.90;;;;;;5012255;28;20042;-68
2022/12/31 01:36:08;;;;;;;8.32;3.78;;;11.80;99.90;;;;;;5012805;28;20049;-68
2022/12/31 01:38:34;;;;;;;7.47;3.20;;;11.80;99.90;;;;;;5012585;28;20049;-68
2022/12/31 01:41:01;;;;;;;8.32;3.17;;;11.80;99.90;;;;;;5029640;28;20041;-68
2022/12/31 01:43:47;;;;;;;5.85;2.80;;;11.70;99.90;;;;;;5012330;28;20049;-68
2022/12/31 01:46:29;;;;;;;10.80;3.50;;;11.70;99.90;;;;;;5011495;28;20057;-68
2022/12/31 01:48:59;;;;;;;11.68;3.17;;;11.70;99.90;;;;;;5012202;28;20052;-68
2022/12/31 01:51:29;;;;;;;5.68;2.60;;;11.60;99.90;;;;;;5012112;28;20148;-68
2022/12/31 01:53:55;;;;;;;7.07;2.97;;;11.60;99.90;;;;;;5029060;28;20064;-68
2022/12/31 01:56:21;;;;;;;7.53;2.30;;;11.60;99.90;;;;;;5012203;28;20072;-68
2022/12/31 01:58:51;;;;;;;7.63;1.92;;;11.60;99.90;;;;;;5032357;28;20385;-68
2022/12/31 02:01:23;;;;;;;5.72;1.90;;;11.60;99.90;;;;;;5035496;28;20037;-68
2022/12/31 02:03:50;;;;;;;4.07;1.85;;;11.60;99.90;;;;;;5036647;28;20432;-68
2022/12/31 02:06:20;;;;;;;5.93;1.85;;;11.50;99.90;;;;;;5018418;28;20038;-68
2022/12/31 02:08:47;;;;;;;7.32;2.33;;;11.50;99.90;;;;;;5017984;28;20187;-68
2022/12/31 02:11:36;;;;;;;6.05;1.90;;;11.50;99.90;;;;;;5035931;28;20041;-68
2022/12/31 02:14:12;;;;;;;7.60;2.05;;;11.50;99.90;;;;;;5036206;28;20378;-68
2022/12/31 02:17:06;;;;;;;7.15;2.03;;;11.40;99.90;;;;;;5002409;28;20046;-68
2022/12/31 02:19:51;;;;;;;5.45;1.80;;;11.40;99.90;;;;;;5037062;28;20041;-68
2022/12/31 02:22:28;;;;;;;7.32;1.80;;;11.30;99.90;;;;;;5036169;28;20033;-68
2022/12/31 02:25:12;;;;;;;7.45;1.60;;;11.30;99.90;;;;;;5036600;28;20041;-68
2022/12/31 02:27:51;;;;;;;5.55;1.60;;;11.30;99.90;;;;;;5002649;28;20528;-68
2022/12/31 02:30:20;;;;;;;4.28;1.20;;;11.30;99.90;;;;;;5036676;28;20144;-68
2022/12/31 02:32:55;;;;;;;5.17;1.20;;;11.30;99.90;;;;;;5036928;28;20046;-68
2022/12/31 02:35:37;;;;;;;5.60;1.10;;;11.20;99.90;;;;;;5018295;28;20387;-68
2022/12/31 02:38:20;;;;;;;7.03;1.45;;;11.20;99.90;;;;;;5036420;28;20045;-68
2022/12/31 02:40:46;;;;;;;4.43;1.33;;;11.20;99.90;;;;;;5021640;28;20075;-68
2022/12/31 02:43:12;;;;;;;4.57;0.93;;;11.10;99.90;;;;;;5054333;28;20045;-68
2022/12/31 02:45:46;;;;;;;2.40;0.90;;;11.10;99.90;;;;;;5055968;28;20033;-68
2022/12/31 02:48:16;;;;;;;5.18;0.90;;;11.10;99.90;;;;;;5054949;28;20048;-68
2022/12/31 02:51:00;;;;;;;3.45;0.57;;;11.10;99.90;;;;;;5048829;28;20053;-68
2022/12/31 02:53:37;;;;;;;7.25;1.02;;;11.10;99.90;;;;;;5056010;28;20613;-68
2022/12/31 02:56:18;;;;;;;5.40;1.00;;;11.00;99.90;;;;;;5054119;28;20779;-68
2022/12/31 03:04:31;;;;;;;5.20;1.05;;;11.00;99.90;;;;;;5055416;28;20531;-68
2022/12/31 03:07:10;;;;;;;11.07;1.10;;;11.00;99.90;;;;;;5055789;28;20513;-68
2022/12/31 03:09:37;;;;;;;6.20;1.83;;;10.90;99.90;;;;;;5030020;28;20037;-68
2022/12/31 03:14:50;;;;;;;3.95;1.45;;;10.90;99.90;;;;;;5035044;28;20053;-68
2022/12/31 03:17:16;;;;;;;3.92;1.00;;;10.90;99.90;;;;;;5034108;28;20079;-68
2022/12/31 03:22:26;;;;;;;6.45;0.95;;;10.90;99.90;;;;;;5052549;28;20143;-68
2022/12/31 03:27:43;;;;;;;6.93;1.08;;;10.90;99.90;;;;;;5052385;28;20083;-68
2022/12/31 03:30:10;;;;;;;5.80;1.30;;;10.90;99.90;;;;;;5052683;28;20424;-68
2022/12/31 03:32:36;;;;;;;6.72;1.00;;;10.80;99.90;;;;;;5046985;28;20070;-68
2022/12/31 03:35:02;;;;;;;5.38;1.10;;;10.90;99.90;;;;;;5034665;28;20533;-68
2022/12/31 03:37:28;;;;;;;6.32;1.20;;;10.90;99.90;;;;;;5052002;28;20029;-68
2022/12/31 03:39:54;;;;;;;10.90;2.30;;;10.90;99.90;;;;;;5049597;28;20070;-68
2022/12/31 03:42:20;;;;;;;4.53;1.23;;;10.90;99.90;;;;;;5027467;28;20051;-68
2022/12/31 03:44:45;;;;;;;5.90;1.38;;;10.90;99.90;;;;;;5034464;28;20104;-68
2022/12/31 03:47:11;;;;;;;6.07;1.27;;;10.90;99.90;;;;;;5031385;28;20136;-68
2022/12/31 03:49:37;;;;;;;6.50;1.35;;;10.90;99.90;;;;;;5047975;28;20061;-68
2022/12/31 03:52:05;;;;;;;11.25;2.25;;;10.90;99.90;;;;;;5051421;28;20044;-68
2022/12/31 03:54:31;;;;;;;10.55;1.35;;;10.90;99.90;;;;;;5052286;28;20083;-68
2022/12/31 03:56:57;;;;;;;6.25;1.83;;;11.00;99.90;;;;;;5033536;28;20059;-68
2022/12/31 03:59:23;;;;;;;9.43;1.42;;;10.90;99.90;;;;;;5051401;28;20037;-68
2022/12/31 04:01:49;;;;;;;7.35;1.60;;;10.90;99.90;;;;;;5033992;28;20063;-68
2022/12/31 04:04:14;;;;;;;9.88;1.50;;;10.90;99.90;;;;;;5030169;28;20118;-68
2022/12/31 04:06:40;;;;;;;8.98;1.80;;;10.90;99.90;;;;;;5051362;28;20142;-68
2022/12/31 04:09:06;;;;;;;6.40;1.50;;;10.90;99.90;;;;;;5051605;28;20094;-68
2022/12/31 04:11:31;;;;;;;12.40;1.85;;;10.90;99.90;;;;;;5033832;28;20106;-68
2022/12/31 04:13:58;;;;;;;10.18;2.28;;;10.90;99.90;;;;;;5033272;28;20068;-68
2022/12/31 04:16:24;;;;;;;11.77;1.90;;;10.90;99.90;;;;;;5050318;28;20052;-67
2022/12/31 04:18:49;;;;;;;4.38;1.65;;;10.90;99.90;;;;;;5051953;28;20040;-67
2022/12/31 04:21:15;;;;;;;6.03;2.00;;;10.90;99.90;;;;;;5050648;28;20083;-67
2022/12/31 04:23:41;;;;;;;11.45;2.45;;;10.90;99.90;;;;;;5051582;28;20136;-67
2022/12/31 04:26:07;;;;;;;8.75;2.00;;;10.90;99.90;;;;;;5051190;28;20032;-67
2022/12/31 04:28:32;;;;;;;9.10;1.90;;;10.90;99.90;;;;;;5050808;28;20029;-67
2022/12/31 04:30:58;;;;;;;6.75;2.08;;;10.90;99.90;;;;;;5033350;28;20043;-67
2022/12/31 04:33:24;;;;;;;8.45;2.50;;;10.90;99.90;;;;;;5051314;28;20037;-67
2022/12/31 04:35:50;;;;;;;8.23;3.03;;;11.00;99.90;;;;;;5032597;28;20095;-67
2022/12/31 04:38:15;;;;;;;6.97;2.55;;;10.90;99.90;;;;;;5016253;28;20049;-67
2022/12/31 04:43:27;;;;;;;9.10;2.47;;;10.90;99.90;;;;;;5033253;28;20059;-67
2022/12/31 04:45:53;;;;;;;9.43;2.58;;;11.00;99.90;;;;;;5032943;28;20120;-67
2022/12/31 04:48:19;;;;;;;8.68;2.75;;;11.00;99.90;;;;;;5030438;28;20044;-67
2022/12/31 04:50:46;;;;;;;10.57;2.92;;;11.00;99.90;;;;;;5018470;28;20044;-67
2022/12/31 04:53:12;;;;;;;10.00;2.83;;;11.00;99.90;;;;;;5050512;28;20531;-67
2022/12/31 04:55:40;;;;;;;9.57;2.58;;;11.00;99.90;;;;;;5050395;28;20037;-67
2022/12/31 04:58:05;;;;;;;5.93;2.22;;;11.00;99.90;;;;;;5032654;28;20052;-67
2022/12/31 05:00:31;;;;;;;10.00;2.97;;;11.00;99.90;;;;;;5027208;28;20040;-67
2022/12/31 05:02:57;;;;;;;10.00;3.30;;;11.00;99.90;;;;;;5049953;28;20045;-67
2022/12/31 05:05:23;;;;;;;13.35;3.50;;;11.00;99.90;;;;;;5032890;28;20051;-67
2022/12/31 05:07:48;;;;;;;9.38;3.10;;;11.00;99.90;;;;;;5050406;28;20037;-67
2022/12/31 05:10:14;;;;;;;9.95;3.03;;;11.00;99.90;;;;;;5032217;28;20076;-67
2022/12/31 05:12:40;;;;;;;9.90;3.45;;;11.00;99.90;;;;;;5032480;28;20124;-67
2022/12/31 05:15:06;;;;;;;7.35;2.88;;;11.00;99.90;;;;;;5032572;28;20032;-67
2022/12/31 05:17:32;;;;;;;8.85;2.67;;;11.00;99.90;;;;;;5049787;28;20033;-67
2022/12/31 05:19:58;;;;;;;9.32;3.35;;;11.00;99.90;;;;;;5049222;28;20033;-67
2022/12/31 05:22:29;;;;;;;9.15;3.50;;;11.00;99.90;;;;;;5032226;28;20048;-67
2022/12/31 05:24:59;;;;;;;9.50;3.53;;;11.00;99.90;;;;;;5049771;28;20079;-67
2022/12/31 05:27:26;;;;;;;9.27;3.58;;;11.00;99.90;;;;;;5050190;28;20124;-67
2022/12/31 05:29:52;;;;;;;9.30;3.53;;;11.00;99.90;;;;;;5049583;28;20040;-67
2022/12/31 05:32:18;;;;;;;7.03;2.72;;;11.00;99.90;;;;;;5032231;28;20037;-67
2022/12/31 05:34:44;;;;;;;8.88;3.72;;;11.00;99.90;;;;;;5049320;28;20080;-66
2022/12/31 05:37:10;;;;;;;8.05;4.10;;;11.00;99.90;;;;;;5031680;28;20147;-67
2022/12/31 05:39:36;;;;;;;7.13;4.38;;;11.00;99.90;;;;;;5028866;28;20049;-67
2022/12/31 05:42:02;;;;;;;12.90;5.25;;;11.00;99.90;;;;;;5012363;28;20468;-67
2022/12/31 05:44:28;;;;;;;10.85;5.35;;;11.00;99.90;;;;;;5029705;28;20037;-67
2022/12/31 05:46:54;;;;;;;9.45;5.30;;;11.00;99.90;;;;;;5030134;28;20542;-66
2022/12/31 05:49:20;;;;;;;11.05;6.53;;;10.90;99.90;;;;;;5019945;28;20092;-66
2022/12/31 05:51:45;;;;;;;14.23;6.93;;;11.00;99.90;;;;;;5022635;28;20042;-66
2022/12/31 05:54:11;;;;;;;14.55;6.50;;;11.00;99.90;;;;;;5025552;28;20093;-66
2022/12/31 05:56:37;;;;;;;12.07;6.50;;;11.00;99.90;;;;;;5020288;28;20065;-66
2022/12/31 05:59:03;;;;;;;11.32;5.78;;;10.90;99.90;;;;;;5029394;28;20033;-66
2022/12/31 06:01:28;;;;;;;9.25;5.18;;;10.90;99.90;;;;;;5012172;28;20436;-65
2022/12/31 06:03:57;;;;;;;12.32;6.28;;;10.90;99.90;;;;;;5012332;28;20102;-65
2022/12/31 06:06:23;;;;;;;12.00;5.50;;;10.90;99.90;;;;;;5029335;28;20500;-65
2022/12/31 06:08:50;;;;;;;10.88;5.50;;;10.90;99.90;;;;;;5012338;28;20049;-66
2022/12/31 06:11:16;;;;;;;9.45;4.82;;;10.90;99.90;;;;;;5012316;28;20041;-65
2022/12/31 06:13:43;;;;;;;9.82;4.85;;;10.80;99.90;;;;;;5029169;28;20128;-65
2022/12/31 06:16:09;;;;;;;6.97;4.45;;;10.80;99.90;;;;;;5012532;28;20553;-65
2022/12/31 06:18:35;;;;;;;11.98;4.55;;;10.80;99.90;;;;;;5029702;28;20065;-65
2022/12/31 06:21:02;;;;;;;8.45;3.90;;;10.80;99.90;;;;;;5011871;28;20037;-65
2022/12/31 06:23:28;;;;;;;8.27;3.97;;;10.80;99.90;;;;;;5029892;28;20041;-65
2022/12/31 06:25:55;;;;;;;11.27;4.30;;;10.70;99.90;;;;;;5029522;28;20035;-65
2022/12/31 06:28:21;;;;;;;6.35;2.55;;;10.70;99.90;;;;;;5029686;28;20505;-65
2022/12/31 06:30:47;;;;;;;6.85;2.92;;;10.70;99.90;;;;;;5045271;28;20045;-65
2022/12/31 06:33:13;;;;;;;5.90;3.22;;;10.70;99.90;;;;;;5028737;28;20060;-65
2022/12/31 06:35:39;;;;;;;7.85;3.10;;;10.70;99.90;;;;;;5029890;28;20477;-65
2022/12/31 06:38:04;;;;;;;6.63;3.45;;;10.70;99.90;;;;;;5013756;28;20049;-65
2022/12/31 06:40:30;;;;;;;6.32;3.33;;;10.70;99.90;;;;;;5027872;28;20163;-65
2022/12/31 06:42:56;;;;;;;7.68;3.60;;;10.70;99.90;;;;;;5028250;28;20049;-65
2022/12/31 06:45:21;;;;;;;5.80;3.55;;;10.70;99.90;;;;;;5030438;28;20056;-65
2022/12/31 06:47:47;;;;;;;7.13;4.15;;;10.60;99.90;;;;;;5032617;28;20574;-65
2022/12/31 06:50:13;;;;;;;8.43;4.18;;;10.60;99.90;;;;;;5019058;28;20609;-65
2022/12/31 06:52:39;;;;;;;8.57;3.55;;;10.60;99.90;;;;;;5030542;28;20045;-65
2022/12/31 06:55:05;;;;;;;5.80;3.92;;;10.70;99.90;;;;;;5032923;28;20168;-65
2022/12/31 06:57:31;;;;;;;7.53;4.82;;;10.60;99.90;;;;;;5023005;28;20049;-65
2022/12/31 06:59:57;;;;;;;6.47;4.15;;;10.60;99.90;;;;;;5032585;28;20091;-65
2022/12/31 07:02:51;;;;;;;7.90;4.53;;;10.60;99.90;;;;;;5032377;28;20402;-65
2022/12/31 07:05:27;;;;;;;8.52;4.38;;;10.60;99.90;;;;;;5033215;28;20398;-65
2022/12/31 07:07:56;;;;;;;6.72;4.40;;;10.60;99.90;;;;;;5031210;28;20401;-65
2022/12/31 07:10:44;;;;;;;7.82;4.30;;;10.60;99.90;;;;;;5031847;28;20052;-65
2022/12/31 07:13:22;;;;;;;6.75;4.05;;;10.60;99.90;;;;;;5031514;28;20508;-65
2022/12/31 07:16:06;;;;;;;8.18;4.63;;;10.60;99.90;;;;;;5014822;28;20072;-65
2022/12/31 07:18:56;;;;;;;6.55;4.07;;;10.60;99.90;;;;;;5032873;28;20129;-64
2022/12/31 07:21:35;;;;;;;8.93;5.20;;;10.70;99.90;;;;;;5032910;28;20037;-65
2022/12/31 07:24:06;;;;;;;9.63;4.95;;;10.70;99.90;;;;;;5024674;28;20045;-64
2022/12/31 07:26:40;;;;;;;5.93;3.90;;;10.70;99.90;;;;;;5017142;28;20175;-64
2022/12/31 07:29:06;;;;;;;5.65;3.40;;;10.70;99.90;;;;;;5030526;28;20084;-65
2022/12/31 07:31:55;;;;;;;7.28;4.78;;;10.70;99.90;;;;;;5012637;28;20497;-64
2022/12/31 07:34:44;;;;;;;5.88;3.88;;;10.70;99.90;;;;;;5032635;28;20103;-64
2022/12/31 07:37:23;;;;;;;7.97;3.80;;;10.70;99.90;;;;;;5015212;28;20041;-64
2022/12/31 07:40:37;;;;;;;6.13;3.42;;;10.70;99.90;;;;;;5027976;28;20045;-64
2022/12/31 07:43:31;;;;;;;4.40;3.20;;;10.70;99.90;;;;;;4967725;28;20125;-64
2022/12/31 07:46:06;;;;;;;5.65;3.30;;;10.70;99.90;;;;;;4979892;28;20043;-64
2022/12/31 07:48:32;;;;;;;4.28;2.85;;;10.70;99.90;;;;;;4985530;28;20074;-64
2022/12/31 07:50:58;;;;;;;5.57;3.65;;;10.70;99.90;;;;;;4970243;28;20046;-64
2022/12/31 07:53:25;;;;;;;6.60;3.10;;;10.80;99.90;;;;;;4973133;28;20552;-64
2022/12/31 07:55:57;;;;;;;5.25;3.55;;;10.80;99.90;;;;;;4989633;28;20053;-64
2022/12/31 07:58:35;;;;;;;4.88;3.03;;;10.80;99.90;;;;;;4972604;28;20096;-64
2022/12/31 08:01:02;;;;;;;4.97;3.38;;;10.80;99.90;;;;;;4989694;28;20065;-65
2022/12/31 08:03:53;;;;;;;5.70;3.35;;;10.80;99.90;;;;;;4989511;28;20084;-64
2022/12/31 08:06:54;;;;;;;5.97;3.63;;;10.90;99.90;;;;;;4989716;28;20055;-63
2022/12/31 08:09:25;;;;;;;4.32;2.97;;;10.90;99.90;;;;;;4952525;28;20073;-64
2022/12/31 08:12:01;;;;;;;4.63;2.97;;;10.90;99.90;;;;;;4989044;28;20043;-63
2022/12/31 08:14:28;;;;;;;5.50;3.65;;;10.90;99.90;;;;;;4989196;28;20042;-63
2022/12/31 08:16:55;;;;;;;6.47;3.85;;;11.00;99.90;;;;;;4989366;28;20084;-63
2022/12/31 08:19:29;;;;;;;5.80;3.95;;;11.00;99.90;;;;;;5006535;28;20383;-63
2022/12/31 08:22:19;;;;;;;5.95;4.00;;;11.00;99.90;;;;;;5029435;28;20171;-63
2022/12/31 08:24:58;;;;;;;9.30;4.53;;;11.00;99.90;;;;;;5031562;28;20367;-63
2022/12/31 08:28:10;;;;;;;6.28;4.30;;;11.00;99.90;;;;;;5030754;28;20060;-63
2022/12/31 08:31:14;;;;;;;7.07;3.85;;;11.10;99.90;;;;;;5031791;28;20041;-63
2022/12/31 08:33:53;;;;;;;7.05;4.35;;;11.10;99.90;;;;;;5042780;28;20490;-63
2022/12/31 08:36:28;;;;;;;5.72;3.92;;;11.20;99.90;;;;;;5031880;28;20095;-64
2022/12/31 08:39:10;;;;;;;7.25;4.95;;;11.20;99.90;;;;;;5042704;28;20056;-64
2022/12/31 08:41:39;;;;;;;7.38;4.78;;;11.30;99.90;;;;;;5033459;28;20144;-64
2022/12/31 08:44:28;;;;;;;7.88;4.75;;;11.30;99.90;;;;;;5050973;28;20056;-63
2022/12/31 08:47:03;;;;;;;6.00;4.50;;;11.40;99.90;;;;;;5045712;28;20151;-64
2022/12/31 08:49:32;;;;;;;7.10;4.85;;;11.50;99.90;;;;;;5027946;28;20073;-64
2022/12/31 08:51:59;;;;;;;7.03;4.95;;;11.60;99.90;;;;;;5033299;28;20056;-64
2022/12/31 08:54:26;;;;;;;9.20;4.95;;;11.60;99.90;;;;;;5050043;28;20048;-64
2022/12/31 08:57:06;;;;;;;7.35;4.85;;;11.70;99.90;;;;;;5033176;28;20512;-63
2022/12/31 08:59:42;;;;;;;9.95;5.30;;;11.80;99.90;;;;;;5050698;28;20547;-63
2022/12/31 09:02:25;;;;;;;9.50;5.38;;;11.90;99.90;;;;;;5050366;28;20041;-64
2022/12/31 09:05:15;;;;;;;9.30;5.53;;;11.90;99.90;;;;;;5032826;28;20453;-64
2022/12/31 09:07:51;;;;;;;6.78;4.35;;;12.00;99.90;;;;;;5049886;28;20452;-64
2022/12/31 09:10:28;;;;;;;7.35;3.17;;;12.10;99.90;;;;;;5032824;28;20162;-64
2022/12/31 09:13:13;;;;;;;4.32;2.85;;;12.10;99.90;;;;;;5032525;28;20485;-64
2022/12/31 09:15:52;;;;;;;7.38;3.20;;;12.20;99.90;;;;;;5050407;28;20444;-64
2022/12/31 09:18:18;;;;;;;3.70;2.25;;;12.20;99.90;;;;;;5050613;28;20121;-64
2022/12/31 09:20:44;;;;;;;2.33;1.48;;;12.30;99.90;;;;;;5032778;28;20073;-64
2022/12/31 09:23:12;;;;;;;3.33;1.25;;;12.30;99.90;;;;;;5049522;28;20037;-65
2022/12/31 09:25:50;;;;;;;2.85;1.20;;;12.30;99.90;;;;;;5050560;28;20041;-64
2022/12/31 09:28:42;;;;;;;1.83;0.77;;;12.40;99.90;;;;;;5049446;28;20052;-64
2022/12/31 09:31:17;;;;;;;1.88;0.80;;;12.40;99.90;;;;;;4972189;28;20529;-65
2022/12/31 09:33:54;;;;;;;4.18;0.68;;;12.40;99.90;;;;;;4988276;28;20522;-65
2022/12/31 09:36:30;;;;;;;2.83;0.65;;;12.40;99.90;;;;;;4987948;28;20047;-65
2022/12/31 09:39:15;;;;;;;1.92;0.88;;;12.50;99.90;;;;;;4971911;28;20483;-66
2022/12/31 09:41:54;;;;;;;2.20;0.60;;;12.60;99.90;;;;;;4962196;28;20400;-64
2022/12/31 09:44:34;;;;;;;2.35;0.57;;;12.60;99.90;;;;;;4972459;28;20108;-65
2022/12/31 09:47:18;;;;;;;2.70;0.55;;;12.70;99.90;;;;;;4972411;28;20065;-66
2022/12/31 09:50:05;;;;;;;2.92;0.70;;;12.70;99.90;;;;;;4959209;28;20047;-66
2022/12/31 09:52:49;;;;;;;3.45;0.82;;;12.80;99.90;;;;;;4979897;28;20185;-65
2022/12/31 09:55:38;;;;;;;4.07;0.90;;;12.80;99.90;;;;;;4988151;28;20491;-65
2022/12/31 09:58:19;;;;;;;3.05;0.77;;;12.90;99.90;;;;;;4987567;28;20042;-65
2022/12/31 10:01:07;;;;;;;3.55;0.52;;;13.00;99.90;;;;;;4963883;28;20054;-65
2022/12/31 10:04:02;;;;;;;5.13;0.98;;;13.00;99.90;;;;;;4979498;28;20041;-65
2022/12/31 10:06:47;;;;;;;4.18;0.60;;;13.00;99.90;;;;;;4970816;28;20042;-65
2022/12/31 10:09:29;;;;;;;3.08;0.60;;;13.00;99.90;;;;;;5027084;28;20049;-65
2022/12/31 10:11:55;;;;;;;2.90;1.05;;;13.00;99.90;;;;;;5045092;28;20041;-65
2022/12/31 10:14:52;;;;;;;7.47;1.17;;;13.00;99.90;;;;;;5044940;28;20056;-66
2022/12/31 10:17:45;;;;;;;3.47;0.60;;;13.00;99.90;;;;;;5044946;28;20362;-66
2022/12/31 10:20:45;;;;;;;6.40;0.90;;;13.00;99.90;;;;;;5016267;28;20049;-66
2022/12/31 10:23:14;;;;;;;6.20;1.70;;;13.00;99.90;;;;;;5015585;28;20053;-66
2022/12/31 10:25:52;;;;;;;4.97;1.50;;;13.00;99.90;;;;;;5039820;28;20055;-66
2022/12/31 10:28:49;;;;;;;6.15;1.08;;;13.00;99.90;;;;;;5033406;28;20072;-66
2022/12/31 10:31:30;;;;;;;4.28;0.90;;;13.00;99.90;;;;;;5033012;28;20103;-66
2022/12/31 10:34:15;;;;;;;8.90;2.65;;;13.00;99.90;;;;;;5048748;28;20041;-65
2022/12/31 10:36:56;;;;;;;4.60;1.20;;;13.10;99.90;;;;;;5033426;28;20057;-66
2022/12/31 10:39:44;;;;;;;8.95;1.50;;;13.10;99.90;;;;;;5046671;28;20057;-66
2022/12/31 10:42:15;;;;;;;8.95;1.50;;;13.10;99.90;;;;;;5048032;28;20103;-66
2022/12/31 10:45:03;;;;;;;4.75;0.90;;;13.10;99.90;;;;;;5047139;28;20056;-66
2022/12/31 10:47:56;;;;;;;5.50;1.10;;;13.10;99.90;;;;;;5032135;28;20049;-66
2022/12/31 10:50:38;;;;;;;13.80;2.80;;;13.20;99.90;;;;;;4998246;28;20108;-65
2022/12/31 10:53:19;;;;;;;6.40;1.63;;;13.30;99.90;;;;;;5045697;28;20111;-66
2022/12/31 10:56:04;;;;;;;7.93;1.77;;;13.30;99.90;;;;;;5040754;28;20385;-66
2022/12/31 10:58:51;;;;;;;6.70;1.50;;;13.30;99.90;;;;;;5031647;28;20123;-66
2022/12/31 11:01:20;;;;;;;5.75;1.48;;;13.30;99.90;;;;;;5032159;28;20409;-66
2022/12/31 11:04:28;;;;;;;9.93;1.90;;;13.30;99.90;;;;;;5047192;28;20098;-66
2022/12/31 11:07:08;;;;;;;5.45;1.80;;;13.30;99.90;;;;;;5041800;28;20042;-66
2022/12/31 11:10:10;;;;;;;4.50;1.20;;;13.20;99.90;;;;;;5031723;28;20460;-66
2022/12/31 11:12:53;;;;;;;7.35;1.00;;;13.20;99.90;;;;;;5047088;28;20049;-66
2022/12/31 11:15:48;;;;;;;4.35;1.27;;;13.20;99.90;;;;;;5032538;28;20052;-67
2022/12/31 11:18:26;;;;;;;4.70;0.70;;;13.20;99.90;;;;;;5029802;28;20049;-66
2022/12/31 11:21:12;;;;;;;4.22;0.70;;;13.30;99.90;;;;;;5030708;28;20060;-66
2022/12/31 11:24:28;;;;;;;4.93;1.02;;;13.20;99.90;;;;;;5014504;28;20057;-66
2022/12/31 11:27:17;;;;;;;5.78;0.80;;;13.30;99.90;;;;;;4954198;28;20057;-66
2022/12/31 11:29:54;;;;;;;5.65;1.05;;;13.30;99.90;;;;;;4965396;28;20062;-66
2022/12/31 11:32:52;;;;;;;6.68;1.17;;;13.30;99.90;;;;;;4954524;28;20043;-66
2022/12/31 11:35:36;;;;;;;3.78;1.25;;;13.20;99.90;;;;;;4959678;28;20061;-66
2022/12/31 11:38:01;;;;;;;5.80;2.35;;;13.20;99.90;;;;;;4965635;28;20102;-67
2022/12/31 11:40:40;;;;;;;8.07;1.90;;;13.20;99.90;;;;;;4950768;29;20055;-66
2022/12/31 11:43:34;;;;;;;6.13;1.48;;;13.30;99.90;;;;;;4950966;29;20057;-67
2022/12/31 11:46:18;;;;;;;4.65;1.50;;;13.10;99.90;;;;;;4935528;29;20047;-67
2022/12/31 11:49:03;;;;;;;5.60;1.45;;;13.10;99.90;;;;;;4945773;29;20087;-67
2022/12/31 11:51:55;;;;;;;7.10;2.05;;;13.10;99.90;;;;;;4951619;29;20516;-66
2022/12/31 11:54:41;;;;;;;11.50;2.42;;;13.10;99.90;;;;;;4946003;28;20047;-66
2022/12/31 11:57:32;;;;;;;6.05;2.20;;;13.10;99.90;;;;;;4950284;29;20555;-66
2022/12/31 12:00:02;;;;;;;8.38;2.70;;;13.10;99.90;;;;;;4942834;28;20122;-66
2022/12/31 12:02:40;;;;;;;4.60;1.98;;;13.10;99.90;;;;;;5012816;28;20124;-66
2022/12/31 12:05:07;;;;;;;11.02;2.13;;;13.10;99.90;;;;;;5031370;28;20041;-66
2022/12/31 12:07:32;;;;;;;6.80;2.20;;;13.10;99.90;;;;;;5014315;28;20088;-66
2022/12/31 12:10:06;;;;;;;7.80;2.47;;;13.10;99.90;;;;;;5012503;28;20768;-66
2022/12/31 12:12:41;;;;;;;7.47;2.30;;;13.00;99.90;;;;;;5013414;28;20045;-64
2022/12/31 12:15:09;;;;;;;6.13;2.10;;;13.00;99.90;;;;;;5030901;28;20041;-65
2022/12/31 12:17:36;;;;;;;6.00;1.80;;;13.00;99.90;;;;;;5030774;28;20698;-65
2022/12/31 12:20:13;;;;;;;7.80;2.83;;;13.00;99.90;;;;;;4997373;28;20061;-64
2022/12/31 12:22:51;;;;;;;5.40;1.60;;;13.00;99.90;;;;;;5013397;28;20513;-66
2022/12/31 12:25:23;;;;;;;4.45;2.00;;;13.00;99.90;;;;;;5023371;28;20034;-65
2022/12/31 12:27:49;;;;;;;4.88;1.77;;;13.00;99.90;;;;;;5003383;28;20050;-65
2022/12/31 12:30:18;;;;;;;6.38;1.45;;;13.00;99.90;;;;;;5009470;28;20052;-65
2022/12/31 12:32:58;;;;;;;5.88;1.85;;;13.00;99.90;;;;;;5003649;28;20109;-65
2022/12/31 12:35:33;;;;;;;8.43;1.67;;;13.10;99.90;;;;;;5006248;28;20041;-65
2022/12/31 12:38:12;;;;;;;7.45;1.75;;;13.10;99.90;;;;;;5011202;28;20049;-66
2022/12/31 12:40:38;;;;;;;5.80;1.40;;;13.10;99.90;;;;;;5040164;28;20513;-66
2022/12/31 12:43:05;;;;;;;10.60;2.22;;;13.20;99.90;;;;;;5041601;28;20501;-66
2022/12/31 12:45:46;;;;;;;6.28;1.70;;;13.20;99.90;;;;;;5049871;28;20559;-66
2022/12/31 12:48:20;;;;;;;6.82;1.30;;;13.20;99.90;;;;;;5028755;28;20045;-65
2022/12/31 12:50:48;;;;;;;16.55;8.63;;;13.20;99.90;;;;;;5023869;28;20052;-65
2022/12/31 12:53:36;;;;;;;5.82;1.80;;;13.20;99.90;;;;;;5039261;28;20052;-65
2022/12/31 12:56:29;;;;;;;10.32;2.15;;;13.20;99.90;;;;;;5049620;28;20052;-65
2022/12/31 12:59:08;;;;;;;9.88;2.17;;;13.20;99.90;;;;;;5039098;28;20477;-65
2022/12/31 13:01:48;;;;;;;7.43;1.33;;;13.20;99.90;;;;;;5032254;28;20047;-66
2022/12/31 13:04:15;;;;;;;5.53;1.42;;;13.20;99.90;;;;;;5027699;28;20045;-66
2022/12/31 13:07:02;;;;;;;9.35;1.70;;;13.10;99.90;;;;;;5032125;28;20128;-65
2022/12/31 13:09:49;;;;;;;9.63;2.00;;;13.10;99.90;;;;;;5025157;28;20068;-66
2022/12/31 13:12:34;;;;;;;8.38;2.17;;;13.10;99.90;;;;;;5034056;28;20059;-66
2022/12/31 13:15:17;;;;;;;11.93;7.18;;;13.00;99.90;;;;;;5050116;28;20075;-64
2022/12/31 13:17:51;;;;;;;9.20;2.80;;;12.90;99.90;;;;;;5050592;28;20531;-65
2022/12/31 13:20:58;;;;;;;9.88;2.78;;;12.90;99.90;;;;;;5026816;28;20521;-64
2022/12/31 13:23:33;;;;;;;10.00;2.75;;;12.80;99.90;;;;;;5044524;28;20090;-65
2022/12/31 13:26:09;;;;;;;9.43;1.73;;;12.80;99.90;;;;;;5029762;28;20045;-64
2022/12/31 13:28:39;;;;;;;5.70;1.35;;;12.80;99.90;;;;;;5029918;28;20037;-64
2022/12/31 13:31:10;;;;;;;6.90;1.42;;;12.80;99.90;;;;;;5030390;28;20044;-64
2022/12/31 13:33:47;;;;;;;5.35;1.60;;;12.80;99.90;;;;;;5029951;28;20100;-64
2022/12/31 13:36:16;;;;;;;8.05;1.50;;;12.80;99.90;;;;;;5030238;28;20382;-64
2022/12/31 13:38:47;;;;;;;5.72;1.50;;;12.80;99.90;;;;;;5012494;28;20053;-65